Time;durP1;ratioP1;P1;durP2;ratioP2;P2;SDS_P1;SDS_P2;PMS_P1;PMS_P2;Temp;Humidity;BMP_temperature;BMP_pressure;BME280_temperature;BME280_humidity;BME280_pressure;Samples;Min_cycle;Max_cycle;Signal;HPM_P1;HPM_P2
2023/10/10 00:00:49;;;;;;;7.82;3.38;;;;;;;-142.91;100.00;56616.03;5059271;28;20668;-66
2023/10/10 00:03:19;;;;;;;6.88;3.78;;;;;;;-142.91;100.00;56616.03;5050081;28;20253;-65
2023/10/10 00:05:46;;;;;;;9.25;3.72;;;;;;;-142.91;100.00;56616.03;5050252;28;20257;-66
2023/10/10 00:08:14;;;;;;;9.52;3.75;;;;;;;-142.91;100.00;56616.03;5048195;28;20250;-64
2023/10/10 00:10:50;;;;;;;9.55;3.55;;;;;;;-142.91;100.00;56616.03;5049692;28;20279;-66
2023/10/10 00:13:19;;;;;;;6.80;3.80;;;;;;;-142.91;100.00;56616.03;5048526;28;20202;-66
2023/10/10 00:15:51;;;;;;;4.47;3.83;;;;;;;-142.91;100.00;56616.03;5048097;28;20194;-66
2023/10/10 00:18:20;;;;;;;6.45;4.10;;;;;;;-142.91;100.00;56616.03;5048165;28;20219;-66
2023/10/10 00:21:06;;;;;;;3.65;3.35;;;;;;;-142.91;100.00;56616.03;5048725;28;20210;-66
2023/10/10 00:23:41;;;;;;;4.20;3.72;;;;;;;-142.91;100.00;56616.03;5049358;28;20280;-66
2023/10/10 00:26:12;;;;;;;8.50;3.65;;;;;;;-142.91;100.00;56616.03;5054716;28;20616;-66
2023/10/10 00:28:41;;;;;;;5.97;3.60;;;;;;;-142.91;100.00;56616.03;5048858;28;20206;-66
2023/10/10 00:31:10;;;;;;;12.70;4.55;;;;;;;-142.91;100.00;56616.03;5051623;28;20271;-65
2023/10/10 00:33:40;;;;;;;7.75;3.95;;;;;;;-142.91;100.00;56616.03;5049005;28;20211;-65
2023/10/10 00:36:10;;;;;;;11.15;4.20;;;;;;;-142.91;100.00;56616.03;5050767;28;20207;-65
2023/10/10 00:38:37;;;;;;;9.35;3.35;;;;;;;-142.91;100.00;56616.03;5049028;28;20296;-66
2023/10/10 00:41:07;;;;;;;9.18;4.10;;;;;;;-142.91;100.00;56616.03;5047762;28;20213;-66
2023/10/10 00:43:34;;;;;;;14.95;4.20;;;;;;;-142.91;100.00;56616.03;5047381;28;20215;-65
2023/10/10 00:46:04;;;;;;;5.15;3.42;;;;;;;-142.91;100.00;56616.03;5048963;28;20257;-66
2023/10/10 00:48:34;;;;;;;11.18;3.92;;;;;;;-142.91;100.00;56616.03;5046961;28;20313;-66
2023/10/10 00:51:10;;;;;;;10.93;3.60;;;;;;;-142.91;100.00;56616.03;5045215;28;20683;-65
2023/10/10 00:53:39;;;;;;;4.93;3.80;;;;;;;189.72;100.00;56616.03;5046272;28;20211;-65
2023/10/10 00:56:07;;;;;;;7.07;3.45;;;;;;;-142.91;100.00;56616.03;5046884;28;21123;-64
2023/10/10 00:58:39;;;;;;;7.15;4.68;;;;;;;-142.91;100.00;56616.03;5054300;28;20223;-65
2023/10/10 01:01:12;;;;;;;7.22;4.63;;;;;;;-142.91;100.00;56616.03;5048233;28;20285;-62
2023/10/10 01:03:41;;;;;;;7.28;4.18;;;;;;;28.45;100.00;56616.03;5045495;28;20199;-66
2023/10/10 01:06:14;;;;;;;9.07;3.70;;;;;;;-142.91;100.00;56616.03;5046917;28;20231;-66
2023/10/10 01:08:57;;;;;;;9.23;4.35;;;;;;;-142.91;100.00;56616.03;5052700;28;20246;-66
2023/10/10 01:11:24;;;;;;;5.95;3.63;;;;;;;-142.91;100.00;56616.03;5047571;28;20703;-66
2023/10/10 01:13:52;;;;;;;6.07;3.13;;;;;;;-142.91;100.00;56616.03;5052431;28;20763;-65
2023/10/10 01:16:23;;;;;;;6.13;3.10;;;;;;;-142.91;100.00;56616.03;5055934;28;20206;-65
2023/10/10 01:18:56;;;;;;;5.03;3.20;;;;;;;-142.91;100.00;56616.03;5054546;28;20206;-64
2023/10/10 01:21:30;;;;;;;6.72;3.63;;;;;;;-142.91;100.00;56616.03;5053707;28;20317;-66
2023/10/10 01:24:00;;;;;;;10.20;3.13;;;;;;;-142.91;100.00;56616.03;5051847;28;20686;-65
2023/10/10 01:26:35;;;;;;;10.50;3.20;;;;;;;-142.91;100.00;56616.03;5048921;28;20318;-65
2023/10/10 01:29:13;;;;;;;11.07;3.63;;;;;;;-142.91;100.00;56616.03;5048648;28;20199;-64
2023/10/10 01:31:42;;;;;;;7.00;3.65;;;;;;;-142.91;100.00;56616.03;5048101;28;20229;-66
2023/10/10 01:34:09;;;;;;;4.35;3.45;;;;;;;-142.91;100.00;56616.03;5050518;28;20622;-66
2023/10/10 01:36:38;;;;;;;3.88;3.20;;;;;;;-142.91;100.00;56616.03;5048018;28;20227;-63
2023/10/10 01:39:27;;;;;;;10.15;2.85;;;;;;;-142.91;100.00;56616.03;5048642;28;20584;-65
2023/10/10 01:41:53;;;;;;;9.93;3.30;;;;;;;-142.91;100.00;56616.03;5052997;28;21232;-64
2023/10/10 01:44:22;;;;;;;7.75;3.10;;;;;;;-142.91;100.00;56616.03;5052772;28;20320;-64
2023/10/10 01:46:51;;;;;;;10.27;3.08;;;;;;;-142.91;100.00;56616.03;5051744;28;20230;-65
2023/10/10 01:49:20;;;;;;;2.90;2.53;;;;;;;-142.91;100.00;56616.03;5050857;28;20305;-64
2023/10/10 01:51:54;;;;;;;7.82;2.88;;;;;;;-142.91;100.00;56616.03;5051466;28;20252;-66
2023/10/10 01:54:21;;;;;;;6.97;2.70;;;;;;;-142.91;100.00;56616.03;5048413;28;20207;-66
2023/10/10 01:56:48;;;;;;;6.22;2.38;;;;;;;-142.91;100.00;56616.03;5048614;28;20195;-66
2023/10/10 01:59:19;;;;;;;10.13;3.00;;;;;;;-142.91;100.00;56616.03;5054475;28;20211;-66
2023/10/10 02:01:47;;;;;;;6.75;2.97;;;;;;;-142.91;100.00;56616.03;5052235;28;20202;-65
2023/10/10 02:04:21;;;;;;;16.40;3.03;;;;;;;-142.91;100.00;56616.03;5056879;28;20626;-65
2023/10/10 02:06:56;;;;;;;8.15;2.92;;;;;;;-142.91;100.00;56616.03;5050470;28;20210;-65
2023/10/10 02:09:33;;;;;;;8.05;3.35;;;;;;;-142.91;100.00;56616.03;5049562;28;20295;-65
2023/10/10 02:12:08;;;;;;;7.53;2.50;;;;;;;-142.91;100.00;56616.03;5048049;28;20207;-64
2023/10/10 02:14:35;;;;;;;8.25;2.70;;;;;;;-142.91;100.00;56616.03;5051975;28;20265;-67
2023/10/10 02:17:09;;;;;;;9.70;2.75;;;;;;;-142.91;100.00;56616.03;5048739;28;20229;-63
2023/10/10 02:19:40;;;;;;;10.10;3.40;;;;;;;-142.91;100.00;56616.03;5048392;28;20269;-64
2023/10/10 02:22:22;;;;;;;4.10;2.45;;;;;;;-142.91;100.00;56616.03;5048013;28;20203;-63
2023/10/10 02:25:08;;;;;;;6.82;3.20;;;;;;;-142.91;100.00;56616.03;5048648;28;20202;-66
2023/10/10 02:27:34;;;;;;;4.25;2.60;;;;;;;-142.91;100.00;56616.03;5046865;28;20676;-66
2023/10/10 02:30:04;;;;;;;7.38;2.40;;;;;;;-142.91;100.00;56616.03;5048291;28;20214;-67
2023/10/10 02:32:33;;;;;;;5.63;3.03;;;;;;;-142.91;100.00;56616.03;5048832;28;20327;-64
2023/10/10 02:35:16;;;;;;;7.28;2.63;;;;;;;-142.91;100.00;56616.03;5047846;28;20199;-65
2023/10/10 02:37:45;;;;;;;5.53;2.30;;;;;;;-142.91;100.00;56616.03;5049260;28;20222;-66
2023/10/10 02:40:15;;;;;;;6.13;2.85;;;;;;;-142.91;100.00;56616.03;5054275;28;20266;-66
2023/10/10 02:42:50;;;;;;;8.32;2.85;;;;;;;-142.91;100.00;56616.03;5050934;28;20297;-64
2023/10/10 02:45:27;;;;;;;5.78;3.28;;;;;;;-142.91;100.00;56616.03;5053167;28;20199;-67
2023/10/10 02:47:54;;;;;;;7.60;2.35;;;;;;;-142.91;100.00;56616.03;5054108;28;20195;-67
2023/10/10 02:53:07;;;;;;;8.52;2.58;;;;;;;-142.91;100.00;56616.03;5049796;28;20214;-66
2023/10/10 02:55:40;;;;;;;5.90;2.42;;;;;;;-142.91;100.00;56616.03;5053678;28;20203;-66
2023/10/10 02:58:20;;;;;;;3.92;2.42;;;;;;;-142.91;100.00;56616.03;5048968;28;20580;-67
2023/10/10 03:00:48;;;;;;;11.13;2.72;;;;;;;-142.91;100.00;56616.03;5047840;28;20194;-66
2023/10/10 03:03:18;;;;;;;7.15;2.70;;;;;;;-142.91;100.00;56616.03;5050164;28;20281;-66
2023/10/10 03:05:50;;;;;;;6.13;2.70;;;;;;;-142.91;100.00;56616.03;5057898;28;20286;-64
2023/10/10 03:08:34;;;;;;;9.38;2.58;;;;;;;-142.91;100.00;56616.03;5049026;28;20277;-65
2023/10/10 03:11:01;;;;;;;4.30;2.50;;;;;;;-142.91;100.00;56616.03;5049329;28;20209;-63
2023/10/10 03:13:31;;;;;;;11.02;2.80;;;;;;;-142.91;100.00;56616.03;5050916;28;20594;-67
2023/10/10 03:16:41;;;;;;;4.72;2.30;;;;;;;-142.91;100.00;56616.03;5047203;28;20194;-65
2023/10/10 03:19:12;;;;;;;9.13;2.47;;;;;;;-142.91;100.00;56616.03;5047662;28;20227;-67
2023/10/10 03:21:44;;;;;;;3.78;2.03;;;;;;;-142.91;100.00;56616.03;5056594;28;20232;-66
2023/10/10 03:24:30;;;;;;;5.93;2.80;;;;;;;-142.91;100.00;56616.03;5057297;28;20720;-65
2023/10/10 03:27:01;;;;;;;10.02;3.45;;;;;;;-142.91;100.00;56616.03;5049372;28;20257;-65
2023/10/10 03:29:46;;;;;;;5.70;2.83;;;;;;;-142.91;100.00;56616.03;5050533;28;20226;-65
2023/10/10 03:32:31;;;;;;;5.40;2.78;;;;;;;-142.91;100.00;56616.03;5052515;28;20275;-65
2023/10/10 03:35:06;;;;;;;3.92;2.47;;;;;;;-142.91;100.00;56616.03;5047834;28;20217;-66
2023/10/10 03:37:40;;;;;;;6.13;2.33;;;;;;;-142.91;100.00;56616.03;5047960;28;20214;-67
2023/10/10 03:40:27;;;;;;;6.75;3.65;;;;;;;-142.91;100.00;56616.03;5053504;28;20209;-66
2023/10/10 05:24:25;;;;;;;20.13;10.40;;;;;;;-142.91;100.00;56616.03;5048282;28;20360;-65
2023/10/10 05:26:54;;;;;;;32.25;18.92;;;;;;;-142.91;100.00;56616.03;5054080;28;20288;-67
2023/10/10 05:29:21;;;;;;;19.58;11.80;;;;;;;-142.91;100.00;56616.03;5047755;28;20198;-65
2023/10/10 05:31:50;;;;;;;13.27;7.72;;;;;;;-142.91;100.00;56616.03;5049346;28;20226;-66
2023/10/10 05:34:22;;;;;;;7.90;5.30;;;;;;;-142.91;100.00;56616.03;5053209;28;20199;-66
2023/10/10 05:36:49;;;;;;;8.05;4.82;;;;;;;-142.91;100.00;56616.03;5053767;28;20631;-65
2023/10/10 05:39:20;;;;;;;8.40;4.70;;;;;;;-142.91;100.00;56616.03;5053718;28;20711;-65
2023/10/10 05:41:47;;;;;;;12.05;4.07;;;;;;;-142.91;100.00;56616.03;5056734;28;20668;-66
2023/10/10 05:44:16;;;;;;;9.95;4.88;;;;;;;-142.91;100.00;56616.03;5050414;28;20495;-65
2023/10/10 05:46:43;;;;;;;7.38;3.67;;;;;;;-142.91;100.00;56616.03;5053691;28;20696;-68
2023/10/10 05:49:10;;;;;;;7.63;4.38;;;;;;;-142.91;100.00;56616.03;5060089;28;20239;-65
2023/10/10 05:51:38;;;;;;;4.65;3.00;;;;;;;-142.91;100.00;56616.03;5052399;28;20215;-68
2023/10/10 05:54:07;;;;;;;9.25;4.70;;;;;;;-142.91;100.00;56616.03;5049833;28;20297;-66
2023/10/10 05:56:34;;;;;;;8.75;3.88;;;;;;;-142.91;100.00;56616.03;5052979;28;20199;-66
2023/10/10 05:59:02;;;;;;;11.13;3.40;;;;;;;-142.91;100.00;56616.03;5052353;28;20250;-66
2023/10/10 06:01:30;;;;;;;8.80;3.58;;;;;;;-142.91;100.00;56616.03;5048814;28;20213;-66
2023/10/10 06:03:57;;;;;;;10.77;3.00;;;;;;;-142.91;100.00;56616.03;5049448;28;20238;-65
2023/10/10 06:06:24;;;;;;;7.32;3.28;;;;;;;-142.91;100.00;56616.03;5052609;28;20287;-65
2023/10/10 06:09:00;;;;;;;9.30;3.70;;;;;;;-142.91;100.00;56616.03;5049455;28;20199;-67
2023/10/10 06:11:27;;;;;;;6.53;3.42;;;;;;;-142.91;100.00;56616.03;5048526;28;20203;-66
2023/10/10 06:13:54;;;;;;;9.77;3.85;;;;;;;-142.91;100.00;56616.03;5049083;28;20226;-67
2023/10/10 06:16:23;;;;;;;10.40;3.95;;;;;;;-142.91;100.00;56616.03;5052935;28;20199;-66
2023/10/10 06:18:50;;;;;;;5.30;3.10;;;;;;;-142.91;100.00;56616.03;5055925;28;20215;-66
2023/10/10 06:21:18;;;;;;;10.63;4.20;;;;;;;-142.91;100.00;56616.03;5054053;28;20680;-68
2023/10/10 06:23:45;;;;;;;9.07;3.65;;;;;;;-142.91;100.00;56616.03;5053598;28;20748;-66
2023/10/10 06:26:13;;;;;;;5.00;3.85;;;;;;;-142.91;100.00;56616.03;5051836;28;20306;-66
2023/10/10 06:28:45;;;;;;;4.93;3.17;;;;;;;-142.91;100.00;56616.03;5049608;28;20199;-67
2023/10/10 06:31:17;;;;;;;6.55;3.28;;;;;;;-142.91;100.00;56616.03;5049028;28;20297;-66
2023/10/10 06:33:44;;;;;;;9.93;3.47;;;;;;;-142.91;100.00;56616.03;5050919;28;20214;-66
2023/10/10 06:39:19;;;;;;;6.57;3.58;;;;;;;-142.91;100.00;56616.03;5023365;28;20224;-67
2023/10/10 06:41:48;;;;;;;7.97;3.55;;;;;;;-142.91;100.00;56616.03;5047088;28;20202;-67
2023/10/10 06:44:15;;;;;;;5.82;3.58;;;;;;;-142.91;100.00;56616.03;5052728;28;20293;-66
2023/10/10 06:46:41;;;;;;;4.18;3.10;;;;;;;-142.91;100.00;56616.03;5053698;28;20641;-66
2023/10/10 06:49:11;;;;;;;5.10;3.67;;;;;;;-142.91;100.00;56616.03;5051337;28;20207;-66
2023/10/10 06:51:40;;;;;;;7.63;2.70;;;;;;;-142.91;100.00;56616.03;5051625;28;20220;-67
2023/10/10 06:54:08;;;;;;;9.65;4.15;;;;;;;-142.91;100.00;56616.03;5049779;28;20298;-67
2023/10/10 06:56:45;;;;;;;8.90;2.92;;;;;;;-142.91;100.00;56616.03;5051663;28;20731;-67
2023/10/10 06:59:16;;;;;;;8.88;3.08;;;;;;;-142.91;100.00;56616.03;5048457;28;20221;-67
2023/10/10 07:01:46;;;;;;;7.45;3.90;;;;;;;-142.91;100.00;56616.03;5049462;28;20226;-65
2023/10/10 07:04:13;;;;;;;8.52;3.92;;;;;;;-142.91;100.00;56616.03;5047967;28;20203;-68
2023/10/10 07:06:43;;;;;;;8.23;3.22;;;;;;;-142.91;100.00;56616.03;5050530;28;20310;-66
2023/10/10 07:09:17;;;;;;;5.80;3.85;;;;;;;-142.91;100.00;56616.03;5048133;28;20203;-67
2023/10/10 07:11:44;;;;;;;7.97;3.60;;;;;;;-142.91;100.00;56616.03;5049252;28;20207;-66
2023/10/10 07:14:15;;;;;;;8.77;3.30;;;;;;;-142.91;100.00;56616.03;5048429;28;20201;-66
2023/10/10 07:16:43;;;;;;;5.13;4.00;;;;;;;-142.91;100.00;56616.03;5048369;28;20268;-67
2023/10/10 07:19:21;;;;;;;7.93;3.78;;;;;;;-142.91;100.00;56616.03;5050332;28;20222;-67
2023/10/10 07:21:47;;;;;;;3.70;3.22;;;;;;;-142.91;100.00;56616.03;5055200;28;20698;-66
2023/10/10 07:24:15;;;;;;;7.20;3.42;;;;;;;-142.91;100.00;56616.03;5052674;28;20207;-66
2023/10/10 07:26:42;;;;;;;9.40;3.13;;;;;;;-142.91;100.00;56616.03;5050582;28;20230;-65
2023/10/10 07:29:30;;;;;;;4.03;3.08;;;;;;;-142.91;100.00;56616.03;5051022;28;20257;-66
2023/10/10 07:32:15;;;;;;;10.18;3.72;;;;;;;-142.91;100.00;56616.03;5051210;28;20217;-66
2023/10/10 07:34:42;;;;;;;4.85;2.78;;;;;;;-142.91;100.00;56616.03;5047537;28;20230;-65
2023/10/10 07:37:09;;;;;;;6.95;3.40;;;;;;;-142.91;100.00;56616.03;5048534;28;20285;-68
2023/10/10 07:39:54;;;;;;;3.85;3.45;;;;;;;-142.91;100.00;56616.03;5050315;28;20223;-65
2023/10/10 07:42:27;;;;;;;8.27;3.10;;;;;;;23.25;100.00;56616.03;5049063;28;20298;-67
2023/10/10 07:44:54;;;;;;;7.72;3.20;;;;;;;-142.91;100.00;56616.03;5046647;28;20207;-66
2023/10/10 07:47:26;;;;;;;7.18;3.65;;;;;;;-142.91;100.00;56616.03;5056282;28;20230;-67
2023/10/10 07:49:53;;;;;;;6.65;3.50;;;;;;;-142.91;100.00;56616.03;5059714;28;20233;-66
2023/10/10 07:52:21;;;;;;;6.10;4.10;;;;;;;-142.91;100.00;56616.03;5064189;28;20206;-67
2023/10/10 07:54:51;;;;;;;6.43;2.92;;;;;;;-142.91;100.00;56616.03;5052406;28;20762;-67
2023/10/10 07:57:22;;;;;;;4.28;3.83;;;;;;;-142.91;100.00;56616.03;5047244;28;20263;-67
2023/10/10 07:59:54;;;;;;;5.93;4.18;;;;;;;-142.91;100.00;56616.03;5048163;28;20218;-66
2023/10/10 08:02:25;;;;;;;6.78;4.18;;;;;;;-142.91;100.00;56616.03;5050653;28;20210;-66
2023/10/10 08:04:53;;;;;;;6.68;3.92;;;;;;;-142.91;100.00;56616.03;5052579;28;20206;-67
2023/10/10 08:07:20;;;;;;;9.40;4.10;;;;;;;-142.91;100.00;56616.03;5051911;28;20248;-66
2023/10/10 08:09:48;;;;;;;5.43;3.78;;;;;;;-142.91;100.00;56616.03;5047232;28;20681;-65
2023/10/10 08:12:15;;;;;;;6.93;3.53;;;;;;;-142.91;100.00;56616.03;5048060;28;20652;-65
2023/10/10 08:14:43;;;;;;;14.70;3.95;;;;;;;-142.91;100.00;56616.03;5048142;28;20200;-65
2023/10/10 08:17:19;;;;;;;8.02;3.38;;;;;;;-142.91;100.00;56616.03;5048780;28;20202;-67
2023/10/10 08:19:51;;;;;;;7.85;3.63;;;;;;;-142.91;100.00;56616.03;5046377;28;20727;-67
2023/10/10 08:22:19;;;;;;;12.95;3.95;;;;;;;-142.91;100.00;56616.03;5048954;28;20294;-66
2023/10/10 08:24:46;;;;;;;5.35;3.53;;;;;;;-142.91;100.00;56616.03;5051190;28;20259;-68
2023/10/10 08:27:14;;;;;;;7.00;3.53;;;;;;;-142.91;100.00;56616.03;5053179;28;20249;-67
2023/10/10 08:29:41;;;;;;;8.13;3.80;;;;;;;-142.91;100.00;56616.03;5047411;28;20230;-66
2023/10/10 08:32:08;;;;;;;12.75;4.20;;;;;;;-142.91;100.00;56616.03;5053487;28;20313;-67
2023/10/10 08:34:38;;;;;;;6.93;3.53;;;;;;;-142.91;100.00;56616.03;5051928;28;20206;-67
2023/10/10 08:37:09;;;;;;;8.93;4.45;;;;;;;-142.91;100.00;56616.03;5052008;28;20205;-66
2023/10/10 08:39:36;;;;;;;5.32;3.20;;;;;;;-142.91;100.00;56616.03;5048931;28;20765;-67
2023/10/10 08:42:06;;;;;;;12.57;5.13;;;;;;;-142.91;100.00;56616.03;5053346;28;20718;-66
2023/10/10 08:44:37;;;;;;;16.15;4.60;;;;;;;-142.91;100.00;56616.03;5056799;28;20206;-65
2023/10/10 08:47:06;;;;;;;11.10;4.22;;;;;;;-142.91;100.00;56616.03;5055091;28;20202;-67
2023/10/10 08:49:35;;;;;;;10.90;4.63;;;;;;;-142.91;100.00;56616.03;5052902;28;20222;-66
2023/10/10 08:52:03;;;;;;;14.15;4.47;;;;;;;-142.91;100.00;56616.03;5054441;28;20742;-66
2023/10/10 08:54:32;;;;;;;16.13;5.15;;;;;;;-142.91;100.00;56616.03;5051985;28;20283;-67
2023/10/10 08:57:03;;;;;;;15.35;5.30;;;;;;;-142.91;100.00;56616.03;5048953;28;20203;-66
2023/10/10 08:59:31;;;;;;;11.57;5.10;;;;;;;-142.91;100.00;56616.03;5046543;28;20226;-68
2023/10/10 09:02:09;;;;;;;5.05;4.18;;;;;;;-142.91;100.00;56616.03;5047312;28;20290;-68
2023/10/10 09:04:35;;;;;;;5.38;4.10;;;;;;;-142.91;100.00;56616.03;5047818;28;20209;-67
2023/10/10 09:07:08;;;;;;;5.80;3.92;;;;;;;-142.91;100.00;56616.03;5052879;28;20665;-68
2023/10/10 09:09:37;;;;;;;13.55;4.93;;;;;;;-142.91;100.00;56616.03;5050934;28;20285;-66
2023/10/10 09:12:12;;;;;;;6.68;4.53;;;;;;;-142.91;100.00;56616.03;5045391;28;20199;-66
2023/10/10 09:14:41;;;;;;;5.63;4.38;;;;;;;-142.91;100.00;56616.03;5046795;28;20202;-67
2023/10/10 09:17:09;;;;;;;18.08;4.85;;;;;;;-142.91;100.00;56616.03;5053949;28;20290;-66
2023/10/10 09:19:40;;;;;;;9.20;3.85;;;;;;;-142.91;100.00;56616.03;5053421;28;20225;-69
2023/10/10 09:22:12;;;;;;;8.23;3.15;;;;;;;-142.91;100.00;56616.03;5048463;28;20288;-67
2023/10/10 09:24:42;;;;;;;11.05;5.22;;;;;;;-142.91;100.00;56616.03;5051297;28;20210;-68
2023/10/10 09:27:21;;;;;;;6.30;3.90;;;;;;;-142.91;100.00;56616.03;5050391;28;20209;-67
2023/10/10 09:29:54;;;;;;;7.90;3.80;;;;;;;-142.91;100.00;56616.03;5046462;28;20282;-65
2023/10/10 09:32:27;;;;;;;7.78;4.25;;;;;;;-142.91;100.00;56616.03;5047370;28;20364;-67
2023/10/10 09:34:57;;;;;;;7.57;3.67;;;;;;;-142.91;100.00;56616.03;5049069;28;20260;-67
2023/10/10 09:37:35;;;;;;;8.82;4.07;;;;;;;-142.91;100.00;56616.03;5052052;28;20222;-68
2023/10/10 09:40:15;;;;;;;11.82;4.05;;;;;;;-142.91;100.00;56616.03;5048562;28;20734;-68
2023/10/10 09:42:53;;;;;;;6.75;3.10;;;;;;;-142.91;100.00;56616.03;5051192;28;20211;-66
2023/10/10 09:45:52;;;;;;;7.57;3.20;;;;;;;-142.91;100.00;56616.03;5049453;28;20648;-68
2023/10/10 09:48:28;;;;;;;3.70;3.35;;;;;;;-142.91;100.00;56616.03;5048606;28;20293;-69
2023/10/10 09:51:15;;;;;;;9.68;4.35;;;;;;;-142.91;100.00;56616.03;5048800;28;20684;-66
2023/10/10 09:53:46;;;;;;;9.55;4.07;;;;;;;-142.91;100.00;56616.03;5050021;28;20206;-67
2023/10/10 09:56:15;;;;;;;6.07;3.45;;;;;;;-142.91;100.00;56616.03;5048760;28;20274;-68
2023/10/10 09:58:44;;;;;;;7.82;3.25;;;;;;;-142.91;100.00;56616.03;5049688;28;20280;-66
2023/10/10 10:01:22;;;;;;;7.57;3.55;;;;;;;-142.91;100.00;56616.03;5050067;28;20333;-67
2023/10/10 10:04:00;;;;;;;7.43;3.20;;;;;;;-142.91;100.00;56616.03;5054853;28;20690;-66
2023/10/10 10:06:38;;;;;;;2.97;2.50;;;;;;;-142.91;100.00;56616.03;5050185;28;20203;-67
2023/10/10 10:09:32;;;;;;;4.50;3.00;;;;;;;-142.91;100.00;56616.03;5049747;28;20590;-67
2023/10/10 10:12:11;;;;;;;7.50;3.55;;;;;;;-142.91;100.00;56616.03;5050370;28;20207;-68
2023/10/10 10:14:48;;;;;;;4.10;2.95;;;;;;;-142.91;100.00;56616.03;5049058;28;20210;-67
2023/10/10 10:17:24;;;;;;;3.72;3.30;;;;;;;-142.91;100.00;56616.03;5052254;28;20253;-67
2023/10/10 10:19:51;;;;;;;4.50;2.92;;;;;;;-142.91;100.00;56616.03;5048988;28;20222;-68
2023/10/10 10:22:18;;;;;;;5.80;2.70;;;;;;;-142.91;100.00;56616.03;5052796;28;20215;-67
2023/10/10 10:24:54;;;;;;;5.60;3.22;;;;;;;-142.91;100.00;56616.03;5048146;28;20206;-68
2023/10/10 10:27:25;;;;;;;3.75;2.22;;;;;;;-142.91;100.00;56616.03;5049415;28;20727;-68
2023/10/10 10:29:56;;;;;;;3.75;2.58;;;;;;;-142.91;100.00;56616.03;5055619;28;20199;-69
2023/10/10 10:32:26;;;;;;;3.78;2.85;;;;;;;-142.91;100.00;56616.03;5049471;28;20269;-68
2023/10/10 10:34:56;;;;;;;3.03;2.65;;;;;;;-142.91;100.00;56616.03;5048703;28;20195;-66
2023/10/10 10:37:28;;;;;;;3.47;3.17;;;;;;;-142.91;100.00;56616.03;5054696;28;20552;-65
2023/10/10 10:40:23;;;;;;;8.10;2.97;;;;;;;-142.91;100.00;56616.03;5049468;28;20227;-67
2023/10/10 10:42:51;;;;;;;4.88;2.50;;;;;;;-142.91;100.00;56616.03;5053944;28;20623;-67
2023/10/10 10:45:26;;;;;;;2.90;2.47;;;;;;;-142.91;100.00;56616.03;5050247;28;20203;-66
2023/10/10 10:47:59;;;;;;;4.35;3.00;;;;;;;-142.91;100.00;56616.03;5048268;28;20203;-66
2023/10/10 10:50:56;;;;;;;5.10;2.50;;;;;;;-142.91;100.00;56616.03;5048075;28;20195;-68
2023/10/10 10:53:33;;;;;;;8.25;3.00;;;;;;;-142.91;100.00;56616.03;5050727;28;20194;-67
2023/10/10 10:56:06;;;;;;;6.55;2.92;;;;;;;-142.91;100.00;56616.03;5053568;28;20225;-66
2023/10/10 10:58:56;;;;;;;9.50;4.10;;;;;;;-142.91;100.00;56616.03;5052604;28;20746;-65
2023/10/10 11:01:24;;;;;;;6.03;3.58;;;;;;;-142.91;100.00;56616.03;5047647;28;20191;-65
2023/10/10 11:03:52;;;;;;;4.55;3.13;;;;;;;-142.91;100.00;56616.03;5048891;28;20268;-66
2023/10/10 11:06:20;;;;;;;4.68;3.03;;;;;;;-142.91;100.00;56616.03;5047114;28;20286;-66
2023/10/10 11:09:08;;;;;;;7.88;3.30;;;;;;;-142.91;100.00;56616.03;5047806;28;20198;-67
2023/10/10 11:11:40;;;;;;;4.75;3.03;;;;;;;-142.91;100.00;56616.03;5050877;28;20199;-66
2023/10/10 11:14:18;;;;;;;5.57;3.05;;;;;;;-142.91;100.00;56616.03;5048543;28;20214;-66
2023/10/10 11:16:46;;;;;;;3.90;2.78;;;;;;;-142.91;100.00;56616.03;5050101;28;20802;-66
2023/10/10 11:19:25;;;;;;;4.28;2.47;;;;;;;-142.91;100.00;56616.03;5053406;28;20207;-66
2023/10/10 11:21:54;;;;;;;4.80;3.15;;;;;;;-142.91;100.00;56616.03;5052812;28;20220;-67
2023/10/10 11:24:25;;;;;;;4.05;2.78;;;;;;;-142.91;100.00;56616.03;5051271;28;20721;-68
2023/10/10 11:27:02;;;;;;;3.15;2.85;;;;;;;-142.91;100.00;56616.03;5048917;28;20737;-66
2023/10/10 11:29:32;;;;;;;8.85;3.40;;;;;;;-142.91;100.00;56616.03;5050886;28;20686;-66
2023/10/10 11:32:06;;;;;;;3.85;2.72;;;;;;;-142.91;100.00;56616.03;5050471;28;20707;-66
2023/10/10 11:34:42;;;;;;;5.30;2.97;;;;;;;-142.91;100.00;56616.03;5047990;28;20207;-67
2023/10/10 11:37:13;;;;;;;5.63;2.53;;;;;;;-142.91;100.00;56616.03;5049375;28;20214;-68
2023/10/10 11:39:48;;;;;;;6.82;3.30;;;;;;;-142.91;100.00;56616.03;5052189;28;20230;-65
2023/10/10 11:42:26;;;;;;;6.85;2.67;;;;;;;-142.91;100.00;56616.03;5056302;28;20202;-67
2023/10/10 11:44:54;;;;;;;5.40;2.53;;;;;;;-142.91;100.00;56616.03;5051728;28;20288;-65
2023/10/10 11:47:25;;;;;;;3.83;2.83;;;;;;;-142.91;100.00;56616.03;5048845;28;20210;-65
2023/10/10 11:50:00;;;;;;;8.43;3.17;;;;;;;-142.91;100.00;56616.03;5051803;28;20195;-65
2023/10/10 11:52:28;;;;;;;2.88;2.55;;;;;;;-142.91;100.00;56616.03;5051131;28;20214;-67
2023/10/10 11:54:58;;;;;;;3.35;2.97;;;;;;;-142.91;100.00;56616.03;5050419;28;20337;-65
2023/10/10 11:57:28;;;;;;;7.47;2.90;;;;;;;-142.91;100.00;56616.03;5048078;28;20696;-65
2023/10/10 11:59:58;;;;;;;3.72;3.40;;;;;;;-142.91;100.00;56616.03;5051955;28;20327;-65
2023/10/10 12:02:35;;;;;;;4.68;3.40;;;;;;;-142.91;100.00;56616.03;5049296;28;20291;-68
2023/10/10 12:05:14;;;;;;;4.15;2.65;;;;;;;-142.91;100.00;56616.03;5052429;28;20598;-67
2023/10/10 12:07:41;;;;;;;9.77;3.20;;;;;;;-142.91;100.00;56616.03;5048088;28;20230;-66
2023/10/10 12:10:08;;;;;;;3.40;2.92;;;;;;;-142.91;100.00;56616.03;5048166;28;20676;-67
2023/10/10 12:12:35;;;;;;;5.03;2.25;;;;;;;-142.91;100.00;56616.03;5048090;28;20286;-66
2023/10/10 12:15:03;;;;;;;13.90;3.33;;;;;;;-142.91;100.00;56616.03;5047555;28;20215;-66
2023/10/10 12:17:31;;;;;;;5.78;2.90;;;;;;;-142.91;100.00;56616.03;5047321;28;20199;-66
2023/10/10 12:19:57;;;;;;;4.15;3.05;;;;;;;-142.91;100.00;56616.03;5048097;28;20225;-65
2023/10/10 12:22:24;;;;;;;6.22;2.78;;;;;;;-142.91;100.00;56616.03;5052343;28;20645;-66
2023/10/10 12:24:51;;;;;;;5.80;2.55;;;;;;;-142.91;100.00;56616.03;5048862;28;20229;-66
2023/10/10 12:27:18;;;;;;;3.80;2.60;;;;;;;-142.91;100.00;56616.03;5052698;28;20194;-66
2023/10/10 12:29:47;;;;;;;3.85;2.42;;;;;;;-142.91;100.00;56616.03;5048576;28;20203;-66
2023/10/10 12:32:18;;;;;;;6.63;3.35;;;;;;;-142.91;100.00;56616.03;5046284;28;20353;-67
2023/10/10 12:34:45;;;;;;;3.55;2.95;;;;;;;-142.91;100.00;56616.03;5049308;28;20561;-67
2023/10/10 12:37:15;;;;;;;12.18;3.00;;;;;;;-142.91;100.00;56616.03;5052343;28;20198;-67
2023/10/10 12:39:42;;;;;;;6.90;3.22;;;;;;;-142.91;100.00;56616.03;5047447;28;20195;-67
2023/10/10 12:42:09;;;;;;;6.30;3.10;;;;;;;-142.91;100.00;56616.03;5048302;28;20257;-66
2023/10/10 12:44:35;;;;;;;6.00;2.92;;;;;;;-142.91;100.00;56616.03;5049261;28;20252;-66
2023/10/10 12:47:06;;;;;;;11.23;3.50;;;;;;;-142.91;100.00;56616.03;5047895;28;20233;-67
2023/10/10 12:49:37;;;;;;;7.18;4.20;;;;;;;-142.91;100.00;56616.03;5049384;28;20207;-67
2023/10/10 12:52:11;;;;;;;12.57;4.40;;;;;;;-142.91;100.00;56616.03;5050544;28;20595;-66
2023/10/10 12:54:38;;;;;;;4.57;2.90;;;;;;;-142.91;100.00;56616.03;5047009;28;20211;-66
2023/10/10 12:57:13;;;;;;;5.72;2.83;;;;;;;-142.91;100.00;56616.03;5052672;28;20222;-66
2023/10/10 12:59:39;;;;;;;5.78;3.20;;;;;;;-142.91;100.00;56616.03;5050261;28;20212;-66
2023/10/10 13:02:08;;;;;;;5.68;2.40;;;;;;;-142.91;100.00;56616.03;5045348;28;21982;-66
2023/10/10 13:04:38;;;;;;;9.45;3.40;;;;;;;-142.91;100.00;56616.03;5046329;28;20202;-67
2023/10/10 13:07:05;;;;;;;8.02;3.03;;;;;;;-142.91;100.00;56616.03;5048222;28;20215;-67
2023/10/10 13:09:31;;;;;;;7.95;2.70;;;;;;;-142.91;100.00;56616.03;5047528;28;20639;-66
2023/10/10 13:12:02;;;;;;;9.48;3.85;;;;;;;-142.91;100.00;56616.03;5054272;28;20238;-66
2023/10/10 13:14:32;;;;;;;5.43;2.88;;;;;;;-142.91;100.00;56616.03;5049863;28;20221;-66